KFTY

Fulton County-Brown Field Airport

Atlanta, Georgia, USA
METAR KFTY 170553Z 00000KT 10SM CLR M01/M02 A3027 RMK AO2 SLP254 T10111022 10044 21011 58005
Observed Flight Rules
Dec-17 @ 05:53 UTC (29 minutes ago) Visual Flight Rules
Wind Visibility Clouds
Calm 10 miles
  • Clear skies
Temperatures Readings
Current -1°C / 30°F
Dewpoint -2°C / 28°F
Humidity 93%
Altimeter 30.27" Hg
Pressure 1025.4 hPa
Elevation 263
METAR KFTY 170553Z 00000KT 10SM CLR M01/M02 A3027 RMK AO2 SLP254 T10111022 10044 21011 58005
Observed Flight Rules
Dec-17 @ 05:53 UTC
(29 minutes ago)
VFR
Wind Visibility
Calm 10 miles
Clouds
  • Clear skies
Temperature Dewpoint
-1°C / 30°F -2°C / 28°F
Humidity Altimeter Pressure
93% 30.27" Hg 1025.4 hPa